Time;durP1;ratioP1;P1;durP2;ratioP2;P2;SDS_P1;SDS_P2;PMS_P1;PMS_P2;Temp;Humidity;BMP_temperature;BMP_pressure;BME280_temperature;BME280_humidity;BME280_pressure;Samples;Min_cycle;Max_cycle;Signal;HPM_P1;HPM_P2
2024/04/06 00:00:43;;;;;;;;;;;;;;;14.42;48.57;95104.00;4196532;28;19935;-59
2024/04/06 00:02:45;;;;;;;;;;;;;;;14.28;48.70;95109.97;4185458;28;19955;-59
2024/04/06 00:04:46;;;;;;;;;;;;;;;14.22;48.91;95090.44;4179355;28;19926;-60
2024/04/06 00:06:46;;;;;;;;;;;;;;;14.23;48.95;95097.34;4192750;28;19924;-60
2024/04/06 00:08:50;;;;;;;;;;;;;;;14.31;48.66;95088.56;4178511;28;19933;-60
2024/04/06 00:10:50;;;;;;;;;;;;;;;14.39;48.50;95096.44;4175416;28;19932;-62
2024/04/06 00:12:51;;;;;;;;;;;;;;;14.47;48.38;95093.75;4190675;28;20003;-60
2024/04/06 00:14:52;;;;;;;;;;;;;;;14.55;48.14;95098.19;4184276;28;19967;-59
2024/04/06 00:16:52;;;;;;;;;;;;;;;14.62;47.93;95101.75;4192600;28;20014;-60
2024/04/06 00:18:53;;;;;;;;;;;;;;;14.63;48.42;95092.88;4178207;28;19936;-60
2024/04/06 00:20:54;;;;;;;;;;;;;;;14.58;48.91;95104.94;4177070;28;20031;-61
2024/04/06 00:22:55;;;;;;;;;;;;;;;14.49;48.78;95112.03;4193336;28;19928;-59
2024/04/06 00:24:55;;;;;;;;;;;;;;;14.43;49.06;95102.19;4189618;28;20295;-58
2024/04/06 00:26:56;;;;;;;;;;;;;;;14.38;49.05;95104.53;4195599;28;19935;-60
2024/04/06 00:28:57;;;;;;;;;;;;;;;14.36;49.14;95094.13;4189336;28;19924;-58
2024/04/06 00:30:57;;;;;;;;;;;;;;;14.33;49.46;95095.31;4178270;28;20439;-60
2024/04/06 00:32:58;;;;;;;;;;;;;;;14.32;49.27;95098.91;4173153;28;20382;-60
2024/04/06 00:34:59;;;;;;;;;;;;;;;14.29;49.27;95099.28;4195890;28;19969;-59
2024/04/06 00:37:01;;;;;;;;;;;;;;;14.30;49.07;95093.03;4192865;28;20491;-60
2024/04/06 00:39:02;;;;;;;;;;;;;;;14.33;48.94;95097.13;4191049;28;19928;-61
2024/04/06 00:41:03;;;;;;;;;;;;;;;14.29;49.04;95091.38;4187948;28;20406;-59
2024/04/06 00:43:04;;;;;;;;;;;;;;;14.06;49.78;95101.84;4191442;28;20351;-58
2024/04/06 00:45:05;;;;;;;;;;;;;;;13.96;50.09;95100.41;4175967;28;19935;-59
2024/04/06 00:47:05;;;;;;;;;;;;;;;13.97;49.97;95099.41;4164185;28;19925;-59
2024/04/06 00:49:07;;;;;;;;;;;;;;;14.00;49.91;95096.44;4185747;28;20388;-59
2024/04/06 00:51:07;;;;;;;;;;;;;;;13.99;49.56;95103.53;4191503;28;19932;-61
2024/04/06 00:53:08;;;;;;;;;;;;;;;14.04;49.97;95105.66;4186727;28;19925;-59
2024/04/06 00:55:09;;;;;;;;;;;;;;;13.99;50.50;95094.81;4189813;28;19932;-61
2024/04/06 00:57:09;;;;;;;;;;;;;;;13.93;50.59;95096.28;4177536;28;20096;-60
2024/04/06 00:59:10;;;;;;;;;;;;;;;13.93;50.83;95091.03;4185559;28;19924;-59
2024/04/06 01:01:11;;;;;;;;;;;;;;;13.89;50.74;95087.91;4188375;28;20346;-59
2024/04/06 01:03:12;;;;;;;;;;;;;;;13.85;50.55;95094.53;4177018;28;19946;-60
2024/04/06 01:05:12;;;;;;;;;;;;;;;13.86;50.56;95096.16;4164318;28;19925;-61
2024/04/06 01:07:13;;;;;;;;;;;;;;;13.83;50.43;95088.59;4176843;28;19929;-62
2024/04/06 01:09:14;;;;;;;;;;;;;;;13.79;50.46;95095.19;4172567;28;20015;-61
2024/04/06 01:11:14;;;;;;;;;;;;;;;13.79;50.53;95094.34;4189265;28;20383;-58
2024/04/06 01:13:15;;;;;;;;;;;;;;;13.67;50.62;95091.28;4182595;28;19924;-60
2024/04/06 01:15:16;;;;;;;;;;;;;;;13.32;51.15;95093.31;4181925;28;20403;-60
2024/04/06 01:17:16;;;;;;;;;;;;;;;12.80;52.55;95097.06;4186868;28;20038;-60
2024/04/06 01:19:17;;;;;;;;;;;;;;;12.36;53.77;95096.47;4183689;28;20312;-60
2024/04/06 01:21:19;;;;;;;;;;;;;;;12.07;54.77;95097.72;4183730;28;19960;-59
2024/04/06 01:23:20;;;;;;;;;;;;;;;12.18;54.57;95089.53;4191569;28;19929;-60
2024/04/06 01:25:20;;;;;;;;;;;;;;;12.26;54.49;95096.59;4189285;28;20367;-61
2024/04/06 01:27:21;;;;;;;;;;;;;;;12.41;54.28;95097.66;4181451;28;19933;-60
2024/04/06 01:29:22;;;;;;;;;;;;;;;12.59;53.72;95100.16;4191767;28;19967;-59
2024/04/06 01:31:22;;;;;;;;;;;;;;;12.63;53.10;95090.97;4188984;28;20289;-61
2024/04/06 01:33:23;;;;;;;;;;;;;;;12.70;53.11;95091.13;4188421;28;19932;-59
2024/04/06 01:35:24;;;;;;;;;;;;;;;12.77;52.95;95089.50;4197707;28;19985;-60
2024/04/06 01:37:25;;;;;;;;;;;;;;;12.88;52.78;95089.19;4192149;28;19967;-59
2024/04/06 01:39:25;;;;;;;;;;;;;;;12.99;52.52;95089.81;4188216;28;19924;-59
2024/04/06 01:41:26;;;;;;;;;;;;;;;13.09;51.91;95080.78;4187036;28;19979;-58
2024/04/06 01:43:26;;;;;;;;;;;;;;;13.20;51.82;95076.19;4184947;28;20028;-62
2024/04/06 01:45:27;;;;;;;;;;;;;;;13.29;52.22;95073.44;4177867;28;19925;-58
2024/04/06 01:47:28;;;;;;;;;;;;;;;13.40;51.51;95077.53;4182570;28;19925;-60
2024/04/06 01:49:29;;;;;;;;;;;;;;;13.49;51.33;95079.13;4185055;28;20303;-60
2024/04/06 01:51:30;;;;;;;;;;;;;;;13.55;51.43;95071.56;4162161;28;19976;-61
2024/04/06 01:53:31;;;;;;;;;;;;;;;13.55;51.66;95084.72;4165246;28;19956;-59
2024/04/06 01:55:31;;;;;;;;;;;;;;;13.58;51.65;95089.66;4182234;28;19975;-60
2024/04/06 01:57:32;;;;;;;;;;;;;;;13.63;51.35;95087.34;4182795;28;20341;-60
2024/04/06 01:59:35;;;;;;;;;;;;;;;13.66;51.64;95087.81;4181284;28;19925;-58
2024/04/06 02:01:35;;;;;;;;;;;;;;;13.70;51.49;95081.25;4187104;28;20292;-60
2024/04/06 02:03:36;;;;;;;;;;;;;;;13.65;51.29;95088.81;4182721;28;19924;-61
2024/04/06 02:05:37;;;;;;;;;;;;;;;13.66;51.86;95085.19;4189077;28;19988;-60
2024/04/06 02:07:38;;;;;;;;;;;;;;;13.65;51.79;95078.28;4188360;28;19928;-60
2024/04/06 02:09:38;;;;;;;;;;;;;;;13.65;51.78;95080.09;4198028;28;20281;-60
2024/04/06 02:11:39;;;;;;;;;;;;;;;13.61;51.79;95082.22;4186238;28;19971;-60
2024/04/06 02:13:40;;;;;;;;;;;;;;;13.62;52.02;95077.81;4183812;28;19925;-60
2024/04/06 02:15:41;;;;;;;;;;;;;;;13.61;51.68;95079.59;4182037;28;19924;-63
2024/04/06 02:17:41;;;;;;;;;;;;;;;13.62;51.64;95076.00;4179443;28;19929;-60
2024/04/06 02:19:42;;;;;;;;;;;;;;;13.60;51.90;95074.53;4179558;28;19931;-59
2024/04/06 02:21:42;;;;;;;;;;;;;;;13.55;51.85;95067.13;4170204;28;19925;-60
2024/04/06 02:23:43;;;;;;;;;;;;;;;13.54;51.85;95076.00;4186493;28;19991;-59
2024/04/06 02:25:44;;;;;;;;;;;;;;;13.57;51.64;95074.84;4185855;28;20049;-61
2024/04/06 02:27:44;;;;;;;;;;;;;;;13.58;51.57;95079.13;4183943;28;20358;-59
2024/04/06 02:29:45;;;;;;;;;;;;;;;13.59;51.78;95084.19;4170296;28;20355;-60
2024/04/06 02:31:46;;;;;;;;;;;;;;;13.57;51.92;95075.66;4180833;28;19985;-58
2024/04/06 02:33:47;;;;;;;;;;;;;;;13.47;51.80;95081.13;4177647;28;19932;-60
2024/04/06 02:35:48;;;;;;;;;;;;;;;13.44;52.23;95085.88;4182868;28;19924;-61
2024/04/06 02:37:49;;;;;;;;;;;;;;;13.45;52.19;95084.91;4187603;28;19931;-60
2024/04/06 02:39:49;;;;;;;;;;;;;;;13.41;51.90;95081.78;4186200;28;20467;-60
2024/04/06 02:41:50;;;;;;;;;;;;;;;13.38;52.16;95091.81;4186032;28;20466;-59
2024/04/06 02:43:51;;;;;;;;;;;;;;;13.31;52.11;95081.97;4182670;28;19925;-60
2024/04/06 02:45:52;;;;;;;;;;;;;;;13.33;52.13;95089.69;4179632;28;20014;-59
2024/04/06 02:47:54;;;;;;;;;;;;;;;13.31;52.21;95083.75;4190308;28;20381;-57
2024/04/06 02:49:55;;;;;;;;;;;;;;;13.35;52.02;95087.72;4187140;28;19928;-61
2024/04/06 02:51:56;;;;;;;;;;;;;;;13.38;52.11;95099.69;4189977;28;19928;-59
2024/04/06 02:53:57;;;;;;;;;;;;;;;13.36;51.78;95089.38;4182746;28;19952;-58
2024/04/06 02:55:58;;;;;;;;;;;;;;;13.37;51.85;95087.56;4186129;28;19929;-60
2024/04/06 02:57:58;;;;;;;;;;;;;;;13.39;51.53;95085.56;4185683;28;19950;-59
2024/04/06 02:59:59;;;;;;;;;;;;;;;13.38;51.52;95071.59;4186576;28;20617;-59
2024/04/06 03:02:00;;;;;;;;;;;;;;;13.40;51.68;95074.88;4183416;28;19931;-59
2024/04/06 03:04:00;;;;;;;;;;;;;;;13.39;51.46;95077.69;4180021;28;20419;-58
2024/04/06 03:06:01;;;;;;;;;;;;;;;13.10;51.75;95079.00;4178955;28;20039;-59
2024/04/06 03:08:02;;;;;;;;;;;;;;;12.76;52.50;95077.34;4182114;28;19986;-58
2024/04/06 03:10:04;;;;;;;;;;;;;;;12.45;53.61;95066.59;4185770;28;19970;-59
2024/04/06 03:12:05;;;;;;;;;;;;;;;12.38;53.62;95081.38;4188732;28;19951;-59
2024/04/06 03:14:06;;;;;;;;;;;;;;;12.33;53.84;95074.00;4184269;28;19966;-59
2024/04/06 03:16:06;;;;;;;;;;;;;;;12.27;54.19;95066.75;4178417;28;20007;-60
2024/04/06 03:18:07;;;;;;;;;;;;;;;12.32;54.14;95068.88;4184576;28;19931;-58
2024/04/06 03:20:08;;;;;;;;;;;;;;;12.31;54.03;95069.88;4180761;28;19924;-59
2024/04/06 03:22:09;;;;;;;;;;;;;;;12.29;54.26;95064.78;4186553;28;19971;-61
2024/04/06 03:24:09;;;;;;;;;;;;;;;12.36;54.10;95062.34;4184656;28;19925;-57
2024/04/06 03:26:10;;;;;;;;;;;;;;;12.45;54.31;95064.81;4185435;28;19925;-59
2024/04/06 03:28:12;;;;;;;;;;;;;;;12.52;53.71;95064.16;4191146;28;20392;-60
2024/04/06 03:30:13;;;;;;;;;;;;;;;12.62;53.71;95070.09;4182064;28;20051;-60
2024/04/06 03:32:14;;;;;;;;;;;;;;;12.73;53.39;95071.56;4182861;28;20464;-59
2024/04/06 03:34:14;;;;;;;;;;;;;;;12.76;52.70;95076.53;4192732;28;20034;-60
2024/04/06 03:36:15;;;;;;;;;;;;;;;12.82;52.93;95075.84;4192732;28;19928;-58
2024/04/06 03:38:16;;;;;;;;;;;;;;;12.85;53.12;95078.16;4181972;28;19924;-60
2024/04/06 03:40:17;;;;;;;;;;;;;;;12.80;52.79;95086.56;4180573;28;19929;-58
2024/04/06 03:42:17;;;;;;;;;;;;;;;12.75;52.50;95090.63;4183867;28;19972;-59
2024/04/06 03:44:18;;;;;;;;;;;;;;;12.70;52.69;95084.06;4194799;28;19925;-59
2024/04/06 03:46:19;;;;;;;;;;;;;;;12.74;52.69;95083.75;4188643;28;20023;-59
2024/04/06 03:48:19;;;;;;;;;;;;;;;12.74;52.68;95078.50;4182804;28;20019;-58
2024/04/06 03:50:20;;;;;;;;;;;;;;;12.70;52.54;95081.44;4187520;28;20025;-58
2024/04/06 03:52:21;;;;;;;;;;;;;;;12.71;52.80;95079.63;4187515;28;19955;-63
2024/04/06 03:54:21;;;;;;;;;;;;;;;12.67;52.32;95076.50;4187077;28;19982;-61
2024/04/06 03:56:22;;;;;;;;;;;;;;;12.65;52.23;95077.66;4177832;28;20463;-61
2024/04/06 03:58:23;;;;;;;;;;;;;;;12.67;52.26;95071.25;4188235;28;20406;-58
2024/04/06 04:00:23;;;;;;;;;;;;;;;12.64;52.73;95076.81;4192706;28;20026;-59
2024/04/06 04:02:24;;;;;;;;;;;;;;;12.64;52.69;95079.44;4196022;28;19947;-61
2024/04/06 04:04:25;;;;;;;;;;;;;;;12.59;52.74;95080.94;4176954;28;20448;-61
2024/04/06 04:06:26;;;;;;;;;;;;;;;12.59;52.80;95080.94;4180134;28;19932;-60
2024/04/06 04:08:27;;;;;;;;;;;;;;;12.29;53.45;95083.97;4183847;28;20272;-59
2024/04/06 04:10:28;;;;;;;;;;;;;;;12.21;53.54;95085.75;4189485;28;19925;-61
2024/04/06 04:12:29;;;;;;;;;;;;;;;12.18;53.84;95089.53;4192372;28;21015;-62
2024/04/06 04:14:29;;;;;;;;;;;;;;;12.16;53.67;95088.88;4187955;28;19947;-60
2024/04/06 04:16:33;;;;;;;;;;;;;;;12.05;53.46;95089.97;4197857;28;19928;-61
2024/04/06 04:18:33;;;;;;;;;;;;;;;12.05;53.79;95094.41;4193363;28;19967;-61
2024/04/06 04:20:35;;;;;;;;;;;;;;;12.04;53.97;95098.00;4189837;28;19924;-59
2024/04/06 04:22:35;;;;;;;;;;;;;;;11.78;54.55;95087.53;4178906;28;19933;-61
2024/04/06 04:24:37;;;;;;;;;;;;;;;11.37;55.63;95092.56;4179093;28;20036;-59
2024/04/06 04:26:37;;;;;;;;;;;;;;;11.41;55.76;95089.47;4167789;28;19929;-61
2024/04/06 04:28:38;;;;;;;;;;;;;;;11.58;56.11;95087.75;4188434;28;19924;-61
2024/04/06 04:30:39;;;;;;;;;;;;;;;11.82;54.80;95089.69;4184750;28;20391;-60
2024/04/06 04:32:39;;;;;;;;;;;;;;;11.98;54.24;95094.22;4181441;28;20032;-60
2024/04/06 04:34:41;;;;;;;;;;;;;;;12.14;53.99;95100.53;4183627;28;19925;-60
2024/04/06 04:36:42;;;;;;;;;;;;;;;12.23;53.73;95100.38;4183624;28;19947;-60
2024/04/06 04:38:42;;;;;;;;;;;;;;;12.38;53.42;95105.84;4183753;28;20352;-61
2024/04/06 04:40:43;;;;;;;;;;;;;;;12.53;53.24;95106.03;4187700;28;19924;-61
2024/04/06 04:42:44;;;;;;;;;;;;;;;12.61;52.97;95110.50;4192044;28;19928;-62
2024/04/06 04:44:44;;;;;;;;;;;;;;;12.70;52.65;95118.22;4189228;28;19928;-59
2024/04/06 04:46:45;;;;;;;;;;;;;;;12.78;52.50;95111.38;4183639;28;20259;-61
2024/04/06 04:48:52;;;;;;;;;;;;;;;12.79;52.50;95111.19;4191429;28;19931;-61
2024/04/06 04:50:53;;;;;;;;;;;;;;;12.90;52.03;95120.56;4179641;28;19925;-62
2024/04/06 04:52:53;;;;;;;;;;;;;;;13.02;51.94;95121.06;4182993;28;19928;-57
2024/04/06 04:54:54;;;;;;;;;;;;;;;13.12;51.62;95124.38;4164779;28;19932;-61
2024/04/06 04:56:55;;;;;;;;;;;;;;;13.21;51.28;95117.31;4170598;28;19929;-62
2024/04/06 04:58:56;;;;;;;;;;;;;;;13.20;51.02;95126.97;4186003;28;20435;-61
2024/04/06 05:00:56;;;;;;;;;;;;;;;13.20;50.99;95126.97;4185179;28;19936;-58
2024/04/06 05:02:59;;;;;;;;;;;;;;;13.04;50.93;95117.28;4187477;28;20437;-60
2024/04/06 05:05:01;;;;;;;;;;;;;;;13.09;51.70;95122.06;4189645;28;19928;-61
2024/04/06 05:07:01;;;;;;;;;;;;;;;13.11;51.72;95120.91;4184311;28;19929;-60
2024/04/06 05:09:02;;;;;;;;;;;;;;;13.23;51.40;95125.84;4184729;28;19928;-60
2024/04/06 05:11:03;;;;;;;;;;;;;;;13.34;51.29;95124.72;4207688;28;19947;-59
2024/04/06 05:13:03;;;;;;;;;;;;;;;13.42;50.77;95129.97;4188429;28;19932;-59
2024/04/06 05:15:04;;;;;;;;;;;;;;;13.50;50.44;95122.88;4188724;28;20367;-58
2024/04/06 05:17:05;;;;;;;;;;;;;;;13.52;50.34;95131.44;4181832;28;20185;-60
2024/04/06 05:19:07;;;;;;;;;;;;;;;13.57;50.29;95138.00;4171582;28;19928;-60
2024/04/06 05:21:08;;;;;;;;;;;;;;;13.49;50.81;95141.50;4186895;28;19943;-60
2024/04/06 05:23:09;;;;;;;;;;;;;;;13.57;50.91;95138.00;4173875;28;19969;-60
2024/04/06 05:25:09;;;;;;;;;;;;;;;13.69;50.32;95142.75;4180922;28;19925;-61
2024/04/06 05:27:10;;;;;;;;;;;;;;;13.82;50.05;95134.34;4186094;28;20004;-60
2024/04/06 05:29:11;;;;;;;;;;;;;;;13.91;49.83;95130.69;4170484;28;19925;-63
2024/04/06 05:31:11;;;;;;;;;;;;;;;14.02;49.58;95133.97;4189219;28;19994;-61
2024/04/06 05:33:12;;;;;;;;;;;;;;;14.09;48.94;95134.94;4202635;28;20440;-59
2024/04/06 05:35:13;;;;;;;;;;;;;;;14.18;49.11;95130.47;4192518;28;19929;-60
2024/04/06 05:37:14;;;;;;;;;;;;;;;14.28;48.64;95118.72;4183449;28;20017;-62
2024/04/06 05:39:15;;;;;;;;;;;;;;;14.37;48.20;95123.94;4186893;28;20366;-59
2024/04/06 05:41:15;;;;;;;;;;;;;;;14.40;48.05;95115.72;4180345;28;19955;-61
2024/04/06 05:43:16;;;;;;;;;;;;;;;14.41;48.71;95110.28;4170351;28;19929;-61
2024/04/06 05:45:16;;;;;;;;;;;;;;;14.44;48.16;95119.66;4181831;28;20362;-60
2024/04/06 05:47:17;;;;;;;;;;;;;;;14.50;47.66;95118.97;4191540;28;19970;-61
2024/04/06 05:49:18;;;;;;;;;;;;;;;14.50;47.55;95118.97;4193169;28;19982;-60
2024/04/06 05:51:19;;;;;;;;;;;;;;;14.26;47.84;95110.19;4188004;28;19932;-61
2024/04/06 05:53:20;;;;;;;;;;;;;;;14.28;47.96;95118.72;4196371;28;20299;-59
2024/04/06 05:55:20;;;;;;;;;;;;;;;14.26;47.84;95107.53;4180487;28;19924;-64
2024/04/06 05:57:21;;;;;;;;;;;;;;;14.25;48.35;95116.44;4175118;28;19932;-60
2024/04/06 05:59:22;;;;;;;;;;;;;;;14.18;48.84;95120.75;4190183;28;20399;-61
2024/04/06 06:01:23;;;;;;;;;;;;;;;14.32;49.34;95111.28;4183440;28;19925;-60
2024/04/06 06:03:23;;;;;;;;;;;;;;;14.27;49.18;95119.72;4184764;28;20045;-61
2024/04/06 06:05:24;;;;;;;;;;;;;;;14.13;49.04;95113.34;4191534;28;20426;-60
2024/04/06 06:07:25;;;;;;;;;;;;;;;14.19;48.81;95118.94;4191648;28;19971;-61
2024/04/06 06:09:26;;;;;;;;;;;;;;;14.26;49.11;95118.09;4188926;28;19924;-60
2024/04/06 06:11:27;;;;;;;;;;;;;;;14.28;48.98;95115.25;4182461;28;19995;-61
2024/04/06 06:13:28;;;;;;;;;;;;;;;13.82;50.09;95123.00;4177304;28;20383;-61
2024/04/06 06:15:28;;;;;;;;;;;;;;;13.47;50.59;95127.69;4189955;28;19925;-59
2024/04/06 06:17:29;;;;;;;;;;;;;;;13.26;51.00;95128.97;4178716;28;19931;-61
2024/04/06 06:19:30;;;;;;;;;;;;;;;13.43;50.98;95129.00;4191743;28;20486;-62
2024/04/06 06:21:31;;;;;;;;;;;;;;;13.58;50.09;95126.50;4181468;28;20094;-59
2024/04/06 06:23:32;;;;;;;;;;;;;;;13.83;49.72;95122.00;4182719;28;19994;-61
2024/04/06 06:25:33;;;;;;;;;;;;;;;13.73;49.84;95133.53;4189610;28;19938;-61
2024/04/06 06:27:33;;;;;;;;;;;;;;;13.88;49.66;95127.59;4182644;28;20383;-63
2024/04/06 06:29:34;;;;;;;;;;;;;;;14.19;49.11;95111.03;4170264;28;20638;-61
2024/04/06 06:31:35;;;;;;;;;;;;;;;14.29;48.41;95120.38;4189874;28;19924;-61
2024/04/06 06:33:35;;;;;;;;;;;;;;;14.28;48.43;95123.16;4176794;28;20048;-59
2024/04/06 06:35:36;;;;;;;;;;;;;;;14.38;48.29;95128.25;4183381;28;20482;-62
2024/04/06 06:37:37;;;;;;;;;;;;;;;14.47;47.99;95130.66;4189756;28;19924;-61
2024/04/06 06:39:37;;;;;;;;;;;;;;;14.55;48.32;95121.91;4184506;28;20372;-60
2024/04/06 06:41:38;;;;;;;;;;;;;;;14.76;47.43;95123.13;4180060;28;20019;-60
2024/04/06 06:43:39;;;;;;;;;;;;;;;14.93;47.44;95119.41;4186576;28;19963;-61
2024/04/06 06:45:39;;;;;;;;;;;;;;;15.22;46.90;95129.22;4185854;28;19994;-61
2024/04/06 06:47:40;;;;;;;;;;;;;;;15.26;46.35;95130.50;4176804;28;19924;-61
2024/04/06 06:49:41;;;;;;;;;;;;;;;15.00;46.18;95135.34;4178068;28;19925;-60
2024/04/06 06:51:41;;;;;;;;;;;;;;;14.97;46.55;95144.44;4167622;28;19979;-62
2024/04/06 06:53:42;;;;;;;;;;;;;;;14.88;46.70;95143.63;4175972;28;20365;-61
2024/04/06 06:55:43;;;;;;;;;;;;;;;14.98;46.52;95147.88;4163304;28;19929;-60
2024/04/06 06:57:43;;;;;;;;;;;;;;;15.10;46.23;95141.19;4177994;28;20407;-60
2024/04/06 06:59:44;;;;;;;;;;;;;;;14.97;46.18;95147.06;4190879;28;20345;-61
2024/04/06 07:01:45;;;;;;;;;;;;;;;14.83;46.47;95147.81;4194372;28;20059;-59
2024/04/06 07:03:45;;;;;;;;;;;;;;;14.69;46.77;95152.00;4184866;28;20020;-62
2024/04/06 07:05:46;;;;;;;;;;;;;;;14.85;46.47;95153.72;4192334;28;20486;-62
2024/04/06 07:07:54;;;;;;;;;;;;;;;15.22;45.86;95150.34;4188147;28;19924;-62
2024/04/06 07:09:54;;;;;;;;;;;;;;;15.46;45.25;95145.84;4178201;28;19932;-62
2024/04/06 07:11:55;;;;;;;;;;;;;;;15.67;44.87;95145.19;4194423;28;19994;-62
2024/04/06 07:13:55;;;;;;;;;;;;;;;15.87;44.55;95143.69;4184564;28;19928;-60
2024/04/06 07:16:10;;;;;;;;;;;;;;;15.67;44.63;95142.53;4190757;28;20441;-63
2024/04/06 07:18:11;;;;;;;;;;;;;;;15.33;45.15;95147.28;4186132;28;19925;-61
2024/04/06 07:20:12;;;;;;;;;;;;;;;15.52;45.18;95161.00;4190737;28;20082;-61
2024/04/06 07:22:12;;;;;;;;;;;;;;;15.84;44.47;95144.06;4190929;28;19924;-61
2024/04/06 07:24:14;;;;;;;;;;;;;;;16.20;43.99;95143.34;4187676;28;19928;-62
2024/04/06 07:26:15;;;;;;;;;;;;;;;16.45;43.32;95153.63;4187596;28;19976;-62
2024/04/06 07:28:16;;;;;;;;;;;;;;;16.52;42.87;95152.72;4193920;28;19936;-64
2024/04/06 07:30:16;;;;;;;;;;;;;;;16.59;42.87;95147.50;4189257;28;19932;-64
2024/04/06 07:32:17;;;;;;;;;;;;;;;16.71;42.91;95146.03;4190562;28;19959;-61
2024/04/06 07:34:19;;;;;;;;;;;;;;;16.44;43.10;95152.81;4182090;28;19924;-60
2024/04/06 07:36:19;;;;;;;;;;;;;;;16.26;43.52;95153.19;4183166;28;19955;-61
2024/04/06 07:38:20;;;;;;;;;;;;;;;16.50;43.19;95143.34;4178262;28;19924;-60
2024/04/06 07:40:20;;;;;;;;;;;;;;;16.53;42.98;95146.41;4183299;28;19932;-60
2024/04/06 07:42:21;;;;;;;;;;;;;;;16.73;43.21;95140.53;4180304;28;20352;-61
2024/04/06 07:44:22;;;;;;;;;;;;;;;17.04;42.44;95136.84;4196213;28;19968;-62
2024/04/06 07:46:22;;;;;;;;;;;;;;;17.16;41.89;95138.81;4189262;28;20019;-60
2024/04/06 07:48:23;;;;;;;;;;;;;;;17.20;41.91;95136.56;4186245;28;19979;-61
2024/04/06 07:50:24;;;;;;;;;;;;;;;16.89;42.05;95136.88;4193343;28;19994;-62
2024/04/06 07:52:24;;;;;;;;;;;;;;;17.04;42.24;95135.00;4191356;28;19938;-59
2024/04/06 07:54:25;;;;;;;;;;;;;;;17.18;41.98;95133.28;4190885;28;19928;-59
2024/04/06 07:56:26;;;;;;;;;;;;;;;17.19;41.83;95133.13;4186290;28;19939;-60
2024/04/06 07:58:26;;;;;;;;;;;;;;;17.05;41.98;95139.28;4187448;28;19973;-59
2024/04/06 08:00:27;;;;;;;;;;;;;;;17.00;42.28;95133.75;4179156;28;20014;-61
2024/04/06 08:02:29;;;;;;;;;;;;;;;17.21;42.02;95130.28;4178103;28;20332;-61
2024/04/06 08:04:29;;;;;;;;;;;;;;;17.47;41.81;95139.47;4191117;28;19997;-61
2024/04/06 08:06:30;;;;;;;;;;;;;;;17.57;41.53;95134.66;4192700;28;20328;-60
2024/04/06 08:08:34;;;;;;;;;;;;;;;17.85;41.22;95126.72;4189592;28;19952;-61
2024/04/06 08:10:36;;;;;;;;;;;;;;;18.13;40.64;95126.72;4193989;28;19935;-60
2024/04/06 08:12:37;;;;;;;;;;;;;;;18.45;40.01;95129.72;4189194;28;19986;-61
2024/04/06 08:14:37;;;;;;;;;;;;;;;18.69;39.77;95122.28;4186975;28;19928;-61
2024/04/06 08:16:40;;;;;;;;;;;;;;;18.60;39.40;95122.44;4183525;28;19970;-60
2024/04/06 08:18:41;;;;;;;;;;;;;;;18.65;39.81;95126.34;4191824;28;19928;-57
2024/04/06 08:20:42;;;;;;;;;;;;;;;18.95;39.78;95125.06;4190119;28;19924;-62
2024/04/06 08:22:42;;;;;;;;;;;;;;;19.24;39.17;95128.38;4181553;28;20184;-61
2024/04/06 08:24:43;;;;;;;;;;;;;;;19.51;38.27;95126.56;4184973;28;19925;-63
2024/04/06 08:26:44;;;;;;;;;;;;;;;19.49;37.87;95127.75;4199651;28;19929;-61
2024/04/06 08:28:45;;;;;;;;;;;;;;;19.44;37.77;95131.03;4180930;28;20018;-62
2024/04/06 08:30:45;;;;;;;;;;;;;;;19.52;37.79;95125.53;4191497;28;19968;-62
2024/04/06 08:32:54;;;;;;;;;;;;;;;19.50;37.74;95119.59;4188003;28;20014;-62
2024/04/06 08:34:55;;;;;;;;;;;;;;;19.60;37.48;95117.34;4184880;28;19928;-59
2024/04/06 08:36:55;;;;;;;;;;;;;;;19.79;37.42;95112.28;4168042;28;20309;-59
2024/04/06 08:38:56;;;;;;;;;;;;;;;19.73;37.67;95123.72;4187215;28;19928;-62
2024/04/06 08:40:57;;;;;;;;;;;;;;;19.67;37.58;95119.19;4193030;28;19937;-60
2024/04/06 08:43:02;;;;;;;;;;;;;;;19.77;37.62;95114.31;4187951;28;19924;-60
2024/04/06 08:45:03;;;;;;;;;;;;;;;19.73;37.51;95113.91;4177573;28;20020;-60
2024/04/06 08:47:03;;;;;;;;;;;;;;;19.58;37.62;95118.59;4189880;28;19981;-61
2024/04/06 08:49:04;;;;;;;;;;;;;;;19.56;37.47;95113.47;4185743;28;19944;-61
2024/04/06 08:51:08;;;;;;;;;;;;;;;19.50;37.55;95113.47;4185369;28;19940;-61
2024/04/06 08:53:09;;;;;;;;;;;;;;;19.44;37.53;95115.09;4173761;28;20002;-61
2024/04/06 08:55:09;;;;;;;;;;;;;;;19.57;37.46;95116.94;4182156;28;19967;-61
2024/04/06 08:57:10;;;;;;;;;;;;;;;19.86;37.11;95117.59;4190888;28;19924;-61
2024/04/06 08:59:11;;;;;;;;;;;;;;;20.13;36.58;95115.69;4188431;28;20384;-62
2024/04/06 09:01:12;;;;;;;;;;;;;;;20.20;36.16;95114.66;4182909;28;20012;-60
2024/04/06 09:03:13;;;;;;;;;;;;;;;20.35;36.29;95106.44;4183122;28;19925;-60
2024/04/06 09:05:13;;;;;;;;;;;;;;;20.68;36.14;95108.16;4170750;28;20440;-60
2024/04/06 09:07:14;;;;;;;;;;;;;;;20.62;35.63;95111.66;4187997;28;19932;-59
2024/04/06 09:09:15;;;;;;;;;;;;;;;20.69;35.51;95112.44;4187100;28;19955;-60
2024/04/06 09:11:16;;;;;;;;;;;;;;;20.62;35.58;95109.00;4193685;28;19989;-60
2024/04/06 09:13:17;;;;;;;;;;;;;;;20.19;36.21;95107.69;4189571;28;20421;-61
2024/04/06 09:15:17;;;;;;;;;;;;;;;20.35;36.29;95105.59;4187157;28;19924;-60
2024/04/06 09:17:18;;;;;;;;;;;;;;;20.04;35.29;95115.09;4188956;28;20096;-61
2024/04/06 09:19:20;;;;;;;;;;;;;;;20.09;35.33;95114.47;4179979;28;19983;-62
2024/04/06 09:21:21;;;;;;;;;;;;;;;20.35;35.35;95110.91;4193410;28;19994;-60
2024/04/06 09:23:23;;;;;;;;;;;;;;;20.77;35.03;95100.75;4192128;28;19928;-63
2024/04/06 09:25:24;;;;;;;;;;;;;;;21.16;34.33;95094.38;4189777;28;19924;-60
2024/04/06 09:27:24;;;;;;;;;;;;;;;21.51;33.81;95103.78;4189217;28;19951;-61
2024/04/06 09:29:25;;;;;;;;;;;;;;;21.59;33.28;95100.84;4183476;28;20035;-61
2024/04/06 09:31:28;;;;;;;;;;;;;;;21.64;32.96;95088.50;4181533;28;20392;-59
2024/04/06 09:33:29;;;;;;;;;;;;;;;21.93;32.73;95094.19;4184859;28;19924;-61
2024/04/06 09:35:30;;;;;;;;;;;;;;;22.16;32.87;95101.56;4190227;28;19925;-62
2024/04/06 09:37:34;;;;;;;;;;;;;;;21.78;32.91;95094.53;4167936;28;20311;-63
2024/04/06 09:39:35;;;;;;;;;;;;;;;21.63;32.92;95096.72;4183125;28;19939;-62
2024/04/06 09:41:36;;;;;;;;;;;;;;;21.67;33.54;95081.94;4185248;28;19932;-61
2024/04/06 09:43:37;;;;;;;;;;;;;;;21.77;33.16;95089.41;4191181;28;20521;-60
2024/04/06 09:45:38;;;;;;;;;;;;;;;21.76;32.85;95079.78;4187091;28;20325;-63
2024/04/06 09:47:38;;;;;;;;;;;;;;;21.99;32.43;95071.16;4180256;28;19925;-61
2024/04/06 09:49:39;;;;;;;;;;;;;;;21.56;31.95;95064.78;4177988;28;19994;-62
2024/04/06 09:51:42;;;;;;;;;;;;;;;21.78;32.05;95067.06;4184152;28;20178;-61
2024/04/06 09:53:43;;;;;;;;;;;;;;;21.66;31.61;95062.44;4196905;28;19975;-61
2024/04/06 09:55:44;;;;;;;;;;;;;;;21.74;31.45;95049.88;4191772;28;19967;-63
2024/04/06 09:57:45;;;;;;;;;;;;;;;21.86;31.71;95042.78;4185886;28;19928;-62
2024/04/06 09:59:46;;;;;;;;;;;;;;;22.08;31.66;95035.16;4196051;28;20157;-62
2024/04/06 10:01:47;;;;;;;;;;;;;;;22.24;31.46;95036.41;4186784;28;20033;-62
2024/04/06 10:03:48;;;;;;;;;;;;;;;22.14;31.71;95028.13;4196684;28;19935;-62
2024/04/06 10:05:51;;;;;;;;;;;;;;;22.31;31.28;95028.38;4196108;28;19924;-64
2024/04/06 10:07:52;;;;;;;;;;;;;;;22.46;31.47;95020.78;4181076;28;20649;-63
2024/04/06 10:10:05;;;;;;;;;;;;;;;22.64;31.09;95022.59;4187781;28;20028;-61
2024/04/06 10:12:08;;;;;;;;;;;;;;;22.74;30.66;95019.38;4180093;28;19924;-61
2024/04/06 10:14:09;;;;;;;;;;;;;;;22.26;30.67;95018.34;4181876;28;19935;-61
2024/04/06 10:16:10;;;;;;;;;;;;;;;21.86;30.76;95024.91;4173983;28;19929;-62
2024/04/06 10:18:10;;;;;;;;;;;;;;;21.79;31.66;95023.34;4174007;28;20238;-59
2024/04/06 10:20:13;;;;;;;;;;;;;;;21.81;31.28;95022.09;4187223;28;20019;-61
2024/04/06 10:22:13;;;;;;;;;;;;;;;21.87;31.31;95023.06;4185004;28;19925;-59
2024/04/06 10:24:16;;;;;;;;;;;;;;;22.01;30.98;95011.22;4166310;28;20028;-61
2024/04/06 10:26:16;;;;;;;;;;;;;;;22.35;30.58;95008.16;4184363;28;19928;-60
2024/04/06 10:28:20;;;;;;;;;;;;;;;22.58;30.20;94999.44;4180030;28;19925;-63
2024/04/06 10:30:21;;;;;;;;;;;;;;;22.32;29.70;95006.78;4178646;28;19969;-61